createdAt,value
2023-11-20T00:00:54.932Z,99987.63
2023-11-20T00:03:52.353Z,99980.69
2023-11-20T00:06:39.581Z,99973.72
2023-11-20T00:09:29.237Z,99974.38
2023-11-20T00:12:20.301Z,99971.31
2023-11-20T00:15:12.804Z,99972.47
2023-11-20T00:18:02.698Z,99942.25
2023-11-20T00:20:49.657Z,99980.47
2023-11-20T00:23:37.075Z,99979.19
2023-11-20T00:26:27.163Z,99979.03
2023-11-20T00:29:27.246Z,99977.34
2023-11-20T00:32:17.078Z,99972.16
2023-11-20T00:35:03.943Z,99976.75
2023-11-20T00:37:50.842Z,99971.66
2023-11-20T00:40:40.107Z,99986.19
2023-11-20T00:43:54.820Z,99982.84
2023-11-20T00:46:45.439Z,99982.41
2023-11-20T00:49:35.170Z,99985.75
2023-11-20T00:52:21.870Z,99976.13
2023-11-20T00:55:12.633Z,99971.00
2023-11-20T00:58:03.516Z,99974.78
2023-11-20T01:00:53.564Z,99962.38
2023-11-20T01:03:41.804Z,99968.66
2023-11-20T01:06:30.598Z,99972.41
2023-11-20T01:09:24.848Z,99971.38
2023-11-20T01:12:16.125Z,99963.75
2023-11-20T01:15:08.440Z,99967.97
2023-11-20T01:17:57.030Z,99964.94
2023-11-20T01:20:47.442Z,99962.88
2023-11-20T01:23:36.542Z,99965.94
2023-11-20T01:26:26.308Z,99960.00
2023-11-20T01:29:16.129Z,99958.47
2023-11-20T01:32:03.092Z,99962.53
2023-11-20T01:34:50.110Z,99964.69
2023-11-20T01:37:41.154Z,99961.84
2023-11-20T01:40:30.536Z,99958.75
2023-11-20T01:43:20.778Z,99920.47
2023-11-20T01:46:16.808Z,99955.41
2023-11-20T01:49:32.714Z,99956.94
2023-11-20T01:52:24.690Z,99960.31
2023-11-20T01:55:20.805Z,99961.16
2023-11-20T01:58:15.886Z,99967.53
2023-11-20T02:01:05.846Z,99965.19
2023-11-20T02:04:02.984Z,99957.56
2023-11-20T02:06:53.765Z,99953.97
2023-11-20T02:09:40.670Z,99951.13
2023-11-20T02:12:34.530Z,99945.44
2023-11-20T02:15:24.560Z,99934.22
2023-11-20T02:18:32.324Z,99892.31
2023-11-20T02:21:20.949Z,99936.38
2023-11-20T02:24:09.057Z,99934.56
2023-11-20T02:27:12.155Z,99931.16
2023-11-20T02:30:07.308Z,99935.22
2023-11-20T02:32:56.391Z,99926.22
2023-11-20T02:35:45.375Z,99936.69
2023-11-20T02:38:35.911Z,99925.53
2023-11-20T02:41:23.061Z,99924.53
2023-11-20T02:44:12.029Z,99927.03
2023-11-20T02:47:02.688Z,99926.72
2023-11-20T02:49:51.336Z,99926.59
2023-11-20T02:52:40.532Z,99912.31
2023-11-20T02:55:34.918Z,99914.03
2023-11-20T02:58:21.564Z,99916.66
2023-11-20T03:01:11.470Z,99918.44
2023-11-20T03:04:00.558Z,99902.38
2023-11-20T03:06:50.039Z,99906.63
2023-11-20T03:09:38.996Z,99898.94
2023-11-20T03:12:26.382Z,99909.97
2023-11-20T03:15:15.824Z,99907.91
2023-11-20T03:18:10.953Z,99907.38
2023-11-20T03:20:59.208Z,99901.63
2023-11-20T03:23:50.275Z,99896.38
2023-11-20T03:26:38.036Z,99895.31
2023-11-20T03:29:27.379Z,99894.31
2023-11-20T03:32:14.160Z,99892.19
2023-11-20T03:35:02.027Z,99895.38
2023-11-20T03:37:50.895Z,99891.13
2023-11-20T03:40:40.159Z,99888.56
2023-11-20T03:43:29.588Z,99878.53
2023-11-20T03:46:16.673Z,99880.75
2023-11-20T03:49:07.568Z,99874.69
2023-11-20T03:51:57.475Z,99874.47
2023-11-20T03:54:50.584Z,99887.03
2023-11-20T03:57:37.653Z,99879.91
2023-11-20T04:00:25.998Z,99872.41
2023-11-20T04:03:17.539Z,99871.88
2023-11-20T04:06:06.599Z,99873.84
2023-11-20T04:08:53.245Z,99872.28
2023-11-20T04:11:51.778Z,99870.75
2023-11-20T04:14:43.523Z,99869.19
2023-11-20T04:17:31.298Z,99864.69
2023-11-20T04:20:23.484Z,99866.13
2023-11-20T04:23:13.347Z,99862.63
2023-11-20T04:26:03.469Z,99858.72
2023-11-20T04:29:05.469Z,99862.75
2023-11-20T04:31:53.146Z,99852.13
2023-11-20T04:35:07.206Z,99843.81
2023-11-20T04:38:01.341Z,99851.06
2023-11-20T04:40:50.879Z,99844.16
2023-11-20T04:43:54.825Z,99841.69
2023-11-20T04:46:45.027Z,99838.72
2023-11-20T04:49:32.137Z,99844.75
2023-11-20T04:52:19.593Z,99844.31
2023-11-20T04:55:07.451Z,99845.34
2023-11-20T04:58:01.736Z,99846.94
2023-11-20T05:00:49.434Z,99846.00
2023-11-20T05:03:46.686Z,99840.78
2023-11-20T05:06:35.773Z,99841.22
2023-11-20T05:12:30.181Z,99834.78
2023-11-20T05:15:19.924Z,99835.81
2023-11-20T05:18:12.583Z,99829.56
2023-11-20T05:21:07.701Z,99834.91
2023-11-20T05:24:02.814Z,99840.16
2023-11-20T05:26:51.654Z,99834.22
2023-11-20T05:29:40.955Z,99839.56
2023-11-20T05:32:29.111Z,99835.09
2023-11-20T05:35:20.347Z,99829.66
2023-11-20T05:38:10.600Z,99828.19
2023-11-20T05:40:59.830Z,99840.13
2023-11-20T05:43:49.076Z,99839.16
2023-11-20T05:46:37.836Z,99837.88
2023-11-20T05:49:26.955Z,99845.09
2023-11-20T05:52:14.164Z,99849.19
2023-11-20T05:55:05.640Z,99847.97
2023-11-20T05:57:55.961Z,99852.91
2023-11-20T06:00:47.341Z,99852.03
2023-11-20T06:03:38.988Z,99859.06
2023-11-20T06:06:30.463Z,99857.28
2023-11-20T06:09:17.267Z,99859.19
2023-11-20T06:12:08.440Z,99851.44
2023-11-20T06:14:56.975Z,99865.84
2023-11-20T06:17:49.391Z,99867.00
2023-11-20T06:20:40.774Z,99863.66
2023-11-20T06:23:29.119Z,99869.22
2023-11-20T06:26:18.485Z,99870.44
2023-11-20T06:29:06.662Z,99872.00
2023-11-20T06:31:55.634Z,99862.97
2023-11-20T06:34:43.138Z,99858.91
2023-11-20T06:37:32.459Z,99873.13
2023-11-20T06:40:20.561Z,99872.13
2023-11-20T06:43:33.475Z,99877.47
2023-11-20T06:46:24.446Z,99874.94
2023-11-20T06:49:13.775Z,99877.31
2023-11-20T06:52:04.444Z,99884.56
2023-11-20T06:54:51.424Z,99884.81
2023-11-20T06:57:38.905Z,99887.31
2023-11-20T07:00:28.138Z,99881.66
2023-11-20T07:03:16.763Z,99889.78
2023-11-20T07:07:01.884Z,99891.53
2023-11-20T07:09:54.516Z,99897.72
2023-11-20T07:12:41.952Z,99893.53
2023-11-20T07:15:29.171Z,99898.56
2023-11-20T07:18:20.175Z,99902.16
2023-11-20T07:24:13.558Z,99906.72
2023-11-20T07:27:02.983Z,99897.66
2023-11-20T07:29:52.025Z,99898.13
2023-11-20T07:32:41.576Z,99904.03
2023-11-20T07:35:31.717Z,99909.59
2023-11-20T07:38:23.957Z,99905.66
2023-11-20T07:41:13.518Z,99911.47
2023-11-20T07:44:02.712Z,99909.47
2023-11-20T07:46:51.691Z,99906.75
2023-11-20T07:49:40.473Z,99912.13
2023-11-20T07:52:28.789Z,99880.81
2023-11-20T07:55:15.615Z,99915.81
2023-11-20T07:58:02.843Z,99917.31
2023-11-20T08:00:50.760Z,99913.00
2023-11-20T08:03:42.284Z,99915.25
2023-11-20T08:06:32.682Z,99920.13
2023-11-20T08:09:26.673Z,99916.78
2023-11-20T08:12:15.874Z,99923.75
2023-11-20T08:15:06.970Z,99933.47
2023-11-20T08:17:56.591Z,99925.25
2023-11-20T08:20:46.024Z,99923.19
2023-11-20T08:23:35.035Z,99932.00
2023-11-20T08:26:30.349Z,99926.63
2023-11-20T08:29:21.759Z,99938.06
2023-11-20T08:32:16.191Z,99926.47
2023-11-20T08:35:05.083Z,99929.84
2023-11-20T08:37:54.278Z,99925.44
2023-11-20T08:40:42.567Z,99930.34
2023-11-20T08:43:32.940Z,99926.84
2023-11-20T08:46:20.469Z,99935.84
2023-11-20T08:49:09.906Z,99935.25
2023-11-20T08:52:02.281Z,99928.31
2023-11-20T08:55:01.509Z,99934.47
2023-11-20T08:57:50.741Z,99931.63
2023-11-20T09:00:41.427Z,99930.63
2023-11-20T09:03:29.238Z,99926.47
2023-11-20T09:06:16.325Z,99928.56
2023-11-20T09:09:06.558Z,99937.06
2023-11-20T09:11:56.395Z,99931.72
2023-11-20T09:14:47.384Z,99943.66
2023-11-20T09:17:38.148Z,99941.34
2023-11-20T09:20:27.617Z,99949.66
2023-11-20T09:23:16.605Z,99945.88
2023-11-20T09:26:04.591Z,99937.81
2023-11-20T09:28:57.711Z,99944.91
2023-11-20T09:31:49.057Z,99949.19
2023-11-20T09:34:42.390Z,99936.34
2023-11-20T09:37:32.487Z,99939.47
2023-11-20T09:40:30.298Z,99938.56
2023-11-20T09:43:24.088Z,99940.44
2023-11-20T09:46:14.949Z,99942.69
2023-11-20T09:49:07.992Z,99951.38
2023-11-20T09:52:01.291Z,99943.56
2023-11-20T09:54:48.698Z,99937.81
2023-11-20T09:57:45.900Z,99936.47
2023-11-20T10:00:34.514Z,99933.28
2023-11-20T10:03:24.092Z,99938.19
2023-11-20T10:06:16.894Z,99937.78
2023-11-20T10:09:11.579Z,99939.00
2023-11-20T10:11:59.049Z,99935.50
2023-11-20T10:14:46.836Z,99932.66
2023-11-20T10:17:37.357Z,99931.00
2023-11-20T10:20:32.000Z,99913.81
2023-11-20T10:23:19.606Z,99929.75
2023-11-20T10:26:15.291Z,99925.63
2023-11-20T10:29:02.292Z,99935.94
2023-11-20T10:31:52.176Z,99932.91
2023-11-20T10:34:40.328Z,99936.69
2023-11-20T10:37:28.816Z,99933.13
2023-11-20T10:40:19.372Z,99928.50
2023-11-20T10:43:16.260Z,99932.28
2023-11-20T10:46:03.073Z,99924.56
2023-11-20T10:48:50.556Z,99927.31
2023-11-20T10:51:38.408Z,99924.97
2023-11-20T10:54:31.194Z,99922.44
2023-11-20T10:57:19.747Z,99930.88
2023-11-20T11:00:17.839Z,99933.13
2023-11-20T11:03:14.850Z,99931.63
2023-11-20T11:06:14.139Z,99926.72
2023-11-20T11:09:07.315Z,99924.75
2023-11-20T11:11:58.206Z,99928.03
2023-11-20T11:14:48.072Z,99926.38
2023-11-20T11:17:46.551Z,99927.38
2023-11-20T11:20:46.471Z,99924.94
2023-11-20T11:23:42.943Z,99937.03
2023-11-20T11:26:38.283Z,99927.03
2023-11-20T11:29:37.028Z,99940.16
2023-11-20T11:32:52.938Z,99937.16
2023-11-20T11:36:14.288Z,99935.13
2023-11-20T11:39:33.007Z,99932.41
2023-11-20T11:42:34.818Z,99930.78
2023-11-20T11:45:31.962Z,99924.38
2023-11-20T11:48:25.343Z,99922.69
2023-11-20T11:51:24.913Z,99919.59
2023-11-20T11:54:18.544Z,99919.31
2023-11-20T11:57:16.161Z,99911.34
2023-11-20T12:00:15.581Z,99918.41
2023-11-20T12:03:11.231Z,99921.75
2023-11-20T12:06:26.106Z,99908.44
2023-11-20T12:09:14.893Z,99926.06
2023-11-20T12:12:04.684Z,99912.09
2023-11-20T12:14:54.289Z,99918.06
2023-11-20T12:18:17.705Z,99910.56
2023-11-20T12:21:12.338Z,99910.56
2023-11-20T12:24:05.754Z,99909.34
2023-11-20T12:27:04.055Z,99905.59
2023-11-20T12:29:58.257Z,99904.81
2023-11-20T12:32:47.111Z,99906.34
2023-11-20T12:35:36.692Z,99903.59
2023-11-20T12:38:26.111Z,99905.94
2023-11-20T12:41:18.208Z,99905.22
2023-11-20T12:44:05.354Z,99903.97
2023-11-20T12:46:54.546Z,99897.19
2023-11-20T12:49:47.799Z,99906.56
2023-11-20T12:52:38.115Z,99910.66
2023-11-20T12:55:26.846Z,99908.56
2023-11-20T12:58:19.988Z,99906.19
2023-11-20T13:01:12.876Z,99914.31
2023-11-20T13:04:01.865Z,99911.56
2023-11-20T13:06:51.383Z,99909.91
2023-11-20T13:09:41.764Z,99915.72
2023-11-20T13:12:37.709Z,99918.88
2023-11-20T13:15:37.066Z,99921.66
2023-11-20T13:18:24.341Z,99915.44
2023-11-20T13:21:24.280Z,99902.88
2023-11-20T13:24:15.148Z,99908.25
2023-11-20T13:27:02.496Z,99916.38
2023-11-20T13:30:14.855Z,99916.00
2023-11-20T13:33:03.717Z,99920.25
2023-11-20T13:35:55.085Z,99911.84
2023-11-20T13:38:42.174Z,99912.66
2023-11-20T13:41:30.449Z,99911.72
2023-11-20T13:44:19.500Z,99913.53
2023-11-20T13:47:09.160Z,99906.28
2023-11-20T13:50:05.834Z,99906.47
2023-11-20T13:52:54.491Z,99904.09
2023-11-20T13:55:46.213Z,99907.59
2023-11-20T13:58:35.737Z,99905.31
2023-11-20T14:01:22.916Z,99906.59
2023-11-20T14:04:24.852Z,99901.72
2023-11-20T14:07:13.847Z,99907.25
2023-11-20T14:10:02.146Z,99912.81
2023-11-20T14:12:53.328Z,99914.19
2023-11-20T14:15:42.727Z,99920.84
2023-11-20T14:18:32.182Z,99922.53
2023-11-20T14:21:24.004Z,99927.47
2023-11-20T14:24:17.412Z,99865.88
2023-11-20T14:27:06.865Z,99933.69
2023-11-20T14:29:57.364Z,99939.63
2023-11-20T14:32:50.541Z,99939.41
2023-11-20T14:35:39.659Z,99942.00
2023-11-20T14:38:26.494Z,99938.81
2023-11-20T14:41:16.407Z,99939.34
2023-11-20T14:44:07.724Z,99934.94
2023-11-20T14:46:56.981Z,99935.00
2023-11-20T14:49:44.470Z,99951.16
2023-11-20T14:52:33.987Z,99945.50
2023-11-20T14:55:21.851Z,99938.81
2023-11-20T14:58:15.212Z,99943.88
2023-11-20T15:01:04.502Z,99948.75
2023-11-20T15:03:59.494Z,99947.13
2023-11-20T15:06:48.934Z,99953.53
2023-11-20T15:09:45.719Z,99951.50
2023-11-20T15:12:34.548Z,99947.41
2023-11-20T15:15:28.846Z,99948.50
2023-11-20T15:18:16.352Z,99888.28
2023-11-20T15:21:10.177Z,99954.81
2023-11-20T15:24:00.255Z,99914.38
2023-11-20T15:26:48.245Z,99931.97
2023-11-20T15:29:35.085Z,99967.50
2023-11-20T15:32:26.317Z,99959.63
2023-11-20T15:35:17.302Z,99961.88
2023-11-20T15:38:04.483Z,99964.91
2023-11-20T15:40:54.660Z,99967.34
2023-11-20T15:43:48.090Z,99972.16
2023-11-20T15:46:39.025Z,99963.75
2023-11-20T15:49:34.169Z,99974.75
2023-11-20T15:52:26.569Z,99974.75
2023-11-20T15:55:16.220Z,99972.44
2023-11-20T15:58:09.195Z,99969.56
2023-11-20T16:00:58.860Z,99973.72
2023-11-20T16:03:49.021Z,99975.03
2023-11-20T16:06:40.515Z,99976.59
2023-11-20T16:09:30.178Z,99970.38
2023-11-20T16:12:21.098Z,99980.28
2023-11-20T16:15:12.207Z,99982.16
2023-11-20T16:18:03.518Z,99980.47
2023-11-20T16:20:54.126Z,99982.16
2023-11-20T16:23:47.076Z,99991.50
2023-11-20T16:26:36.417Z,99989.41
2023-11-20T16:29:25.437Z,99993.84
2023-11-20T16:32:14.630Z,99998.44
2023-11-20T16:35:04.655Z,99997.75
2023-11-20T16:37:55.383Z,100011.34
2023-11-20T16:40:48.184Z,100000.34
2023-11-20T16:43:38.464Z,99995.59
2023-11-20T16:46:33.865Z,99996.44
2023-11-20T16:49:24.257Z,99995.00
2023-11-20T16:52:11.140Z,100000.16
2023-11-20T16:55:05.930Z,100004.13
2023-11-20T16:57:56.910Z,100008.16
2023-11-20T17:00:45.895Z,100008.69
2023-11-20T17:03:37.134Z,100016.84
2023-11-20T17:06:24.268Z,100019.41
2023-11-20T17:09:14.346Z,100016.69
2023-11-20T17:12:03.604Z,100011.25
2023-11-20T17:14:54.321Z,100005.31
2023-11-20T17:17:45.882Z,100008.53
2023-11-20T17:20:34.638Z,100013.44
2023-11-20T17:23:23.813Z,100009.38
2023-11-20T17:26:14.500Z,100012.03
2023-11-20T17:29:05.274Z,100015.94
2023-11-20T17:31:59.842Z,100013.78
2023-11-20T17:34:46.809Z,100014.97
2023-11-20T17:37:41.336Z,100024.47
2023-11-20T17:40:28.632Z,100029.31
2023-11-20T17:43:20.981Z,100031.84
2023-11-20T17:46:09.252Z,100035.50
2023-11-20T17:49:03.329Z,100036.84
2023-11-20T17:51:52.941Z,100041.94
2023-11-20T17:54:40.492Z,100037.72
2023-11-20T17:57:29.780Z,100041.63
2023-11-20T18:00:19.887Z,100044.53
2023-11-20T18:03:13.289Z,100051.63
2023-11-20T18:06:03.706Z,100044.47
2023-11-20T18:08:53.863Z,100057.22
2023-11-20T18:11:42.834Z,100057.22
2023-11-20T18:14:34.044Z,100057.75
2023-11-20T18:17:24.438Z,100055.56
2023-11-20T18:20:16.505Z,100060.81
2023-11-20T18:23:09.754Z,100055.53
2023-11-20T18:25:58.840Z,100054.50
2023-11-20T18:28:45.697Z,100063.34
2023-11-20T18:31:33.900Z,100059.06
2023-11-20T18:34:22.703Z,100063.00
2023-11-20T18:37:12.255Z,100064.53
2023-11-20T18:40:05.578Z,100064.88
2023-11-20T18:42:55.212Z,100063.00
2023-11-20T18:45:42.494Z,100070.78
2023-11-20T18:48:29.657Z,100072.69
2023-11-20T18:51:16.649Z,100066.38
2023-11-20T18:54:08.288Z,100076.41
2023-11-20T18:57:01.488Z,100073.19
2023-11-20T18:59:53.385Z,100069.78
2023-11-20T19:02:41.762Z,100082.34
2023-11-20T19:05:31.541Z,100082.19
2023-11-20T19:08:18.609Z,100083.72
2023-11-20T19:11:05.778Z,100089.50
2023-11-20T19:13:56.615Z,100086.41
2023-11-20T19:16:46.196Z,100100.22
2023-11-20T19:19:32.888Z,100097.47
2023-11-20T19:22:20.050Z,100097.97
2023-11-20T19:25:08.417Z,100101.22
2023-11-20T19:27:58.040Z,100102.38
2023-11-20T19:30:51.195Z,100100.00
2023-11-20T19:33:38.874Z,100107.66
2023-11-20T19:36:25.742Z,100102.41
2023-11-20T19:39:13.317Z,100104.59
2023-11-20T19:42:01.042Z,100099.69
2023-11-20T19:44:48.205Z,100110.38
2023-11-20T19:47:41.628Z,100107.16
2023-11-20T19:50:31.089Z,100101.53
2023-11-20T19:53:20.551Z,100109.50
2023-11-20T19:56:15.694Z,100097.63
2023-11-20T19:59:05.315Z,100102.03
2023-11-20T20:02:00.463Z,100108.16
2023-11-20T20:04:56.010Z,100105.47
2023-11-20T20:07:42.726Z,100102.88
2023-11-20T20:10:32.162Z,100113.09
2023-11-20T20:13:22.127Z,100109.69
2023-11-20T20:16:11.793Z,100107.94
2023-11-20T20:19:01.345Z,100110.56
2023-11-20T20:21:54.219Z,100109.56
2023-11-20T20:24:45.215Z,100114.03
2023-11-20T20:27:41.414Z,100114.91
2023-11-20T20:30:37.573Z,100114.28
2023-11-20T20:33:27.135Z,100120.84
2023-11-20T20:36:23.173Z,100120.19
2023-11-20T20:39:16.358Z,100128.69
2023-11-20T20:42:04.449Z,100125.34
2023-11-20T20:44:54.116Z,100130.13
2023-11-20T20:47:41.790Z,100139.31
2023-11-20T20:50:37.378Z,100137.03
2023-11-20T20:53:28.763Z,100142.50
2023-11-20T20:56:42.781Z,100138.88
2023-11-20T20:59:31.871Z,100154.75
2023-11-20T21:02:21.098Z,100149.84
2023-11-20T21:05:13.005Z,100157.09
2023-11-20T21:08:02.967Z,100159.84
2023-11-20T21:10:56.006Z,100163.34
2023-11-20T21:13:48.785Z,100167.31
2023-11-20T21:16:35.542Z,100174.53
2023-11-20T21:19:25.792Z,100173.59
2023-11-20T21:22:16.288Z,100172.97
2023-11-20T21:25:06.536Z,100178.09
2023-11-20T21:27:59.050Z,100183.09
2023-11-20T21:30:47.529Z,100182.25
2023-11-20T21:33:35.272Z,100182.56
2023-11-20T21:36:26.221Z,100185.56
2023-11-20T21:39:23.049Z,100186.72
2023-11-20T21:42:17.117Z,100184.97
2023-11-20T21:45:11.008Z,100184.97
2023-11-20T21:48:06.210Z,100201.31
2023-11-20T21:50:56.383Z,100191.84
2023-11-20T21:53:53.380Z,100203.41
2023-11-20T21:56:43.927Z,100202.00
2023-11-20T21:59:32.291Z,100206.88
2023-11-20T22:02:22.180Z,100209.72
2023-11-20T22:05:16.064Z,100215.34
2023-11-20T22:08:10.430Z,100209.06
2023-11-20T22:11:05.615Z,100221.34
2023-11-20T22:13:58.395Z,100227.16
2023-11-20T22:16:45.689Z,100218.56
2023-11-20T22:19:34.014Z,100221.25
2023-11-20T22:22:24.792Z,100217.44
2023-11-20T22:25:13.942Z,100232.91
2023-11-20T22:28:02.971Z,100237.53
2023-11-20T22:30:50.249Z,100238.38
2023-11-20T22:33:37.195Z,100236.44
2023-11-20T22:36:40.738Z,100233.75
2023-11-20T22:39:31.552Z,100240.00
2023-11-20T22:42:21.780Z,100238.91
2023-11-20T22:45:12.230Z,100233.56
2023-11-20T22:48:06.213Z,100240.00
2023-11-20T22:50:54.181Z,100243.56
2023-11-20T22:53:47.538Z,100245.41
2023-11-20T22:56:36.373Z,100246.25
2023-11-20T22:59:28.527Z,100243.03
2023-11-20T23:02:25.344Z,100249.09
2023-11-20T23:05:15.076Z,100248.53
2023-11-20T23:08:08.926Z,100249.81
2023-11-20T23:11:03.497Z,100253.66
2023-11-20T23:13:59.956Z,100253.25
2023-11-20T23:17:05.569Z,100251.88
2023-11-20T23:20:35.068Z,100255.03
2023-11-20T23:23:31.778Z,100254.47
2023-11-20T23:26:28.415Z,100235.88
2023-11-20T23:29:44.512Z,100258.59
2023-11-20T23:32:45.519Z,100254.94
2023-11-20T23:35:42.193Z,100259.22
2023-11-20T23:38:44.030Z,100267.28
2023-11-20T23:41:58.741Z,100264.88
2023-11-20T23:45:08.955Z,100261.47
2023-11-20T23:48:26.210Z,100271.88
2023-11-20T23:51:21.737Z,100283.25
2023-11-20T23:54:34.205Z,100280.66
2023-11-20T23:57:29.449Z,100286.53
